sensor_id;sensor_type;location;lat;lon;timestamp;P1;durP1;ratioP1;P2;durP2;ratioP2
3527;SDS011;1778;47.966;7.854;2023-08-06T00:00:59;2.73;;;2.53;;
3527;SDS011;1778;47.966;7.854;2023-08-06T00:02:01;2.10;;;2.00;;
3527;SDS011;1778;47.966;7.854;2023-08-06T00:03:02;2.03;;;2.03;;
3527;SDS011;1778;47.966;7.854;2023-08-06T00:04:04;2.30;;;2.20;;
3527;SDS011;1778;47.966;7.854;2023-08-06T00:05:05;2.17;;;2.07;;
3527;SDS011;1778;47.966;7.854;2023-08-06T00:06:07;4.20;;;2.03;;
3527;SDS011;1778;47.966;7.854;2023-08-06T00:07:09;2.17;;;2.10;;
3527;SDS011;1778;47.966;7.854;2023-08-06T00:08:10;2.37;;;2.27;;
3527;SDS011;1778;47.966;7.854;2023-08-06T00:09:12;2.60;;;2.50;;
3527;SDS011;1778;47.966;7.854;2023-08-06T00:10:14;3.53;;;2.70;;
3527;SDS011;1778;47.966;7.854;2023-08-06T00:11:16;2.40;;;2.20;;
3527;SDS011;1778;47.966;7.854;2023-08-06T00:12:19;3.53;;;2.80;;
3527;SDS011;1778;47.966;7.854;2023-08-06T00:13:20;2.40;;;2.40;;
3527;SDS011;1778;47.966;7.854;2023-08-06T00:14:21;3.77;;;2.33;;
3527;SDS011;1778;47.966;7.854;2023-08-06T00:15:23;2.80;;;2.60;;
3527;SDS011;1778;47.966;7.854;2023-08-06T00:16:25;2.60;;;2.43;;
3527;SDS011;1778;47.966;7.854;2023-08-06T00:17:26;2.97;;;2.77;;
3527;SDS011;1778;47.966;7.854;2023-08-06T00:18:28;2.90;;;2.70;;
3527;SDS011;1778;47.966;7.854;2023-08-06T00:19:30;2.90;;;2.80;;
3527;SDS011;1778;47.966;7.854;2023-08-06T00:20:33;2.60;;;2.50;;
3527;SDS011;1778;47.966;7.854;2023-08-06T00:21:34;2.63;;;2.53;;
3527;SDS011;1778;47.966;7.854;2023-08-06T00:22:37;2.97;;;2.80;;
3527;SDS011;1778;47.966;7.854;2023-08-06T00:23:40;3.60;;;2.70;;
3527;SDS011;1778;47.966;7.854;2023-08-06T00:24:41;2.87;;;2.77;;
3527;SDS011;1778;47.966;7.854;2023-08-06T00:25:43;2.63;;;2.43;;
3527;SDS011;1778;47.966;7.854;2023-08-06T00:26:44;2.97;;;2.77;;
3527;SDS011;1778;47.966;7.854;2023-08-06T00:27:46;3.80;;;3.50;;
3527;SDS011;1778;47.966;7.854;2023-08-06T00:28:47;2.70;;;2.50;;
3527;SDS011;1778;47.966;7.854;2023-08-06T00:29:49;3.10;;;3.00;;
3527;SDS011;1778;47.966;7.854;2023-08-06T00:30:54;3.37;;;3.10;;
3527;SDS011;1778;47.966;7.854;2023-08-06T00:31:56;6.30;;;3.10;;
3527;SDS011;1778;47.966;7.854;2023-08-06T00:32:58;3.00;;;2.90;;
3527;SDS011;1778;47.966;7.854;2023-08-06T00:34:00;2.63;;;2.53;;
3527;SDS011;1778;47.966;7.854;2023-08-06T00:35:01;2.73;;;2.63;;
3527;SDS011;1778;47.966;7.854;2023-08-06T00:36:04;3.00;;;2.80;;
3527;SDS011;1778;47.966;7.854;2023-08-06T00:37:05;3.10;;;2.83;;
3527;SDS011;1778;47.966;7.854;2023-08-06T00:38:07;2.17;;;2.17;;
3527;SDS011;1778;47.966;7.854;2023-08-06T00:39:08;2.40;;;2.30;;
3527;SDS011;1778;47.966;7.854;2023-08-06T00:40:10;2.73;;;2.63;;
3527;SDS011;1778;47.966;7.854;2023-08-06T00:41:11;2.63;;;2.53;;
3527;SDS011;1778;47.966;7.854;2023-08-06T00:42:13;2.50;;;2.40;;
3527;SDS011;1778;47.966;7.854;2023-08-06T00:43:14;3.00;;;2.80;;
3527;SDS011;1778;47.966;7.854;2023-08-06T00:44:16;3.30;;;3.20;;
3527;SDS011;1778;47.966;7.854;2023-08-06T00:45:17;4.20;;;2.67;;
3527;SDS011;1778;47.966;7.854;2023-08-06T00:46:19;2.90;;;2.80;;
3527;SDS011;1778;47.966;7.854;2023-08-06T00:47:20;4.17;;;2.93;;
3527;SDS011;1778;47.966;7.854;2023-08-06T00:48:22;3.03;;;2.83;;
3527;SDS011;1778;47.966;7.854;2023-08-06T00:49:23;5.40;;;3.90;;
3527;SDS011;1778;47.966;7.854;2023-08-06T00:50:25;2.23;;;2.23;;
3527;SDS011;1778;47.966;7.854;2023-08-06T00:51:28;2.90;;;2.70;;
3527;SDS011;1778;47.966;7.854;2023-08-06T00:52:29;2.77;;;2.67;;
3527;SDS011;1778;47.966;7.854;2023-08-06T00:53:31;2.73;;;2.70;;
3527;SDS011;1778;47.966;7.854;2023-08-06T00:54:33;2.73;;;2.63;;
3527;SDS011;1778;47.966;7.854;2023-08-06T00:55:35;3.07;;;2.97;;
3527;SDS011;1778;47.966;7.854;2023-08-06T00:56:37;2.60;;;2.60;;
3527;SDS011;1778;47.966;7.854;2023-08-06T00:57:39;2.77;;;2.67;;
3527;SDS011;1778;47.966;7.854;2023-08-06T00:58:41;2.10;;;2.10;;
3527;SDS011;1778;47.966;7.854;2023-08-06T00:59:43;2.77;;;2.57;;
3527;SDS011;1778;47.966;7.854;2023-08-06T01:00:45;2.70;;;2.50;;
3527;SDS011;1778;47.966;7.854;2023-08-06T01:01:48;2.33;;;2.33;;
3527;SDS011;1778;47.966;7.854;2023-08-06T01:02:51;2.50;;;2.43;;
3527;SDS011;1778;47.966;7.854;2023-08-06T01:03:54;2.70;;;2.50;;
3527;SDS011;1778;47.966;7.854;2023-08-06T01:04:56;3.10;;;3.00;;
3527;SDS011;1778;47.966;7.854;2023-08-06T01:05:57;2.63;;;2.53;;
3527;SDS011;1778;47.966;7.854;2023-08-06T01:07:12;2.70;;;2.60;;
3527;SDS011;1778;47.966;7.854;2023-08-06T01:09:57;2.57;;;2.37;;
3527;SDS011;1778;47.966;7.854;2023-08-06T01:11:26;2.70;;;2.60;;
3527;SDS011;1778;47.966;7.854;2023-08-06T01:12:45;2.73;;;2.63;;
3527;SDS011;1778;47.966;7.854;2023-08-06T01:14:01;2.23;;;2.23;;
3527;SDS011;1778;47.966;7.854;2023-08-06T01:15:14;2.40;;;2.30;;
3527;SDS011;1778;47.966;7.854;2023-08-06T01:16:20;2.43;;;2.33;;
3527;SDS011;1778;47.966;7.854;2023-08-06T01:17:22;2.63;;;2.53;;
3527;SDS011;1778;47.966;7.854;2023-08-06T01:18:27;2.23;;;2.23;;
3527;SDS011;1778;47.966;7.854;2023-08-06T01:19:29;2.00;;;1.90;;
3527;SDS011;1778;47.966;7.854;2023-08-06T01:20:30;2.63;;;2.43;;
3527;SDS011;1778;47.966;7.854;2023-08-06T01:21:32;4.10;;;2.20;;
3527;SDS011;1778;47.966;7.854;2023-08-06T01:22:34;3.37;;;3.07;;
3527;SDS011;1778;47.966;7.854;2023-08-06T01:23:36;2.30;;;2.20;;
3527;SDS011;1778;47.966;7.854;2023-08-06T01:24:37;2.33;;;2.23;;
3527;SDS011;1778;47.966;7.854;2023-08-06T01:25:43;2.20;;;2.10;;
3527;SDS011;1778;47.966;7.854;2023-08-06T01:27:10;2.00;;;1.90;;
3527;SDS011;1778;47.966;7.854;2023-08-06T01:28:21;1.83;;;1.83;;
3527;SDS011;1778;47.966;7.854;2023-08-06T01:29:48;1.73;;;1.73;;
3527;SDS011;1778;47.966;7.854;2023-08-06T01:31:24;1.90;;;1.90;;
3527;SDS011;1778;47.966;7.854;2023-08-06T01:32:32;2.40;;;1.70;;
3527;SDS011;1778;47.966;7.854;2023-08-06T01:33:36;4.10;;;1.90;;
3527;SDS011;1778;47.966;7.854;2023-08-06T01:34:43;2.40;;;2.30;;
3527;SDS011;1778;47.966;7.854;2023-08-06T01:35:45;1.90;;;1.80;;
3527;SDS011;1778;47.966;7.854;2023-08-06T01:36:48;2.20;;;2.00;;
3527;SDS011;1778;47.966;7.854;2023-08-06T01:37:51;2.03;;;2.03;;
3527;SDS011;1778;47.966;7.854;2023-08-06T01:38:53;1.90;;;1.80;;
3527;SDS011;1778;47.966;7.854;2023-08-06T01:39:54;2.10;;;2.10;;
3527;SDS011;1778;47.966;7.854;2023-08-06T01:40:56;2.00;;;2.00;;
3527;SDS011;1778;47.966;7.854;2023-08-06T01:41:57;1.73;;;1.73;;
3527;SDS011;1778;47.966;7.854;2023-08-06T01:42:59;2.00;;;1.90;;
3527;SDS011;1778;47.966;7.854;2023-08-06T01:44:00;2.17;;;2.00;;
3527;SDS011;1778;47.966;7.854;2023-08-06T01:45:02;2.27;;;2.17;;
3527;SDS011;1778;47.966;7.854;2023-08-06T01:46:04;2.63;;;2.40;;
3527;SDS011;1778;47.966;7.854;2023-08-06T01:47:05;2.07;;;2.00;;
3527;SDS011;1778;47.966;7.854;2023-08-06T01:48:07;1.67;;;1.67;;
3527;SDS011;1778;47.966;7.854;2023-08-06T01:49:09;2.00;;;2.00;;
3527;SDS011;1778;47.966;7.854;2023-08-06T01:50:10;2.10;;;2.00;;
3527;SDS011;1778;47.966;7.854;2023-08-06T01:51:11;2.97;;;1.53;;
3527;SDS011;1778;47.966;7.854;2023-08-06T01:52:13;2.40;;;1.97;;
3527;SDS011;1778;47.966;7.854;2023-08-06T01:53:14;2.17;;;2.07;;
3527;SDS011;1778;47.966;7.854;2023-08-06T01:54:16;1.60;;;1.60;;
3527;SDS011;1778;47.966;7.854;2023-08-06T01:55:18;1.90;;;1.90;;
3527;SDS011;1778;47.966;7.854;2023-08-06T01:56:19;1.70;;;1.70;;
3527;SDS011;1778;47.966;7.854;2023-08-06T01:57:22;1.97;;;1.97;;
3527;SDS011;1778;47.966;7.854;2023-08-06T01:58:23;2.70;;;2.50;;
3527;SDS011;1778;47.966;7.854;2023-08-06T01:59:24;1.80;;;1.80;;
3527;SDS011;1778;47.966;7.854;2023-08-06T02:00:26;4.03;;;1.70;;
3527;SDS011;1778;47.966;7.854;2023-08-06T02:01:29;1.83;;;1.83;;
3527;SDS011;1778;47.966;7.854;2023-08-06T02:02:31;2.00;;;1.90;;
3527;SDS011;1778;47.966;7.854;2023-08-06T02:03:33;1.80;;;1.70;;
3527;SDS011;1778;47.966;7.854;2023-08-06T02:04:34;1.93;;;1.93;;
3527;SDS011;1778;47.966;7.854;2023-08-06T02:05:36;1.93;;;1.93;;
3527;SDS011;1778;47.966;7.854;2023-08-06T02:06:37;1.80;;;1.70;;
3527;SDS011;1778;47.966;7.854;2023-08-06T02:07:39;2.30;;;2.20;;
3527;SDS011;1778;47.966;7.854;2023-08-06T02:08:41;10.70;;;2.20;;
3527;SDS011;1778;47.966;7.854;2023-08-06T02:09:43;2.10;;;2.10;;
3527;SDS011;1778;47.966;7.854;2023-08-06T02:10:44;3.60;;;1.97;;
3527;SDS011;1778;47.966;7.854;2023-08-06T02:11:46;3.00;;;1.80;;
3527;SDS011;1778;47.966;7.854;2023-08-06T02:12:48;1.97;;;1.97;;
3527;SDS011;1778;47.966;7.854;2023-08-06T02:13:49;1.90;;;1.90;;
3527;SDS011;1778;47.966;7.854;2023-08-06T02:14:52;2.27;;;2.27;;
3527;SDS011;1778;47.966;7.854;2023-08-06T02:15:54;2.17;;;2.07;;
3527;SDS011;1778;47.966;7.854;2023-08-06T02:16:55;2.27;;;2.27;;
3527;SDS011;1778;47.966;7.854;2023-08-06T02:17:59;2.20;;;2.10;;
3527;SDS011;1778;47.966;7.854;2023-08-06T02:19:00;2.40;;;2.30;;
3527;SDS011;1778;47.966;7.854;2023-08-06T02:20:03;2.60;;;2.40;;
3527;SDS011;1778;47.966;7.854;2023-08-06T02:21:05;2.90;;;2.63;;
3527;SDS011;1778;47.966;7.854;2023-08-06T02:22:07;2.53;;;2.43;;
3527;SDS011;1778;47.966;7.854;2023-08-06T02:23:08;2.80;;;2.70;;
3527;SDS011;1778;47.966;7.854;2023-08-06T02:24:11;3.30;;;3.00;;
3527;SDS011;1778;47.966;7.854;2023-08-06T02:25:12;3.57;;;3.23;;
3527;SDS011;1778;47.966;7.854;2023-08-06T02:26:16;3.40;;;3.30;;
3527;SDS011;1778;47.966;7.854;2023-08-06T02:27:18;3.20;;;3.00;;
3527;SDS011;1778;47.966;7.854;2023-08-06T02:28:20;3.00;;;2.90;;
3527;SDS011;1778;47.966;7.854;2023-08-06T02:29:21;3.03;;;2.93;;
3527;SDS011;1778;47.966;7.854;2023-08-06T02:30:23;6.50;;;3.23;;
3527;SDS011;1778;47.966;7.854;2023-08-06T02:31:24;2.97;;;2.73;;
3527;SDS011;1778;47.966;7.854;2023-08-06T02:32:26;3.07;;;2.97;;
3527;SDS011;1778;47.966;7.854;2023-08-06T02:33:27;3.13;;;2.97;;
3527;SDS011;1778;47.966;7.854;2023-08-06T02:34:29;2.67;;;2.67;;
3527;SDS011;1778;47.966;7.854;2023-08-06T02:35:30;3.10;;;3.00;;
3527;SDS011;1778;47.966;7.854;2023-08-06T02:36:32;3.03;;;3.03;;
3527;SDS011;1778;47.966;7.854;2023-08-06T02:37:34;3.20;;;3.10;;
3527;SDS011;1778;47.966;7.854;2023-08-06T02:38:35;3.33;;;3.23;;
3527;SDS011;1778;47.966;7.854;2023-08-06T02:39:37;3.40;;;3.30;;
3527;SDS011;1778;47.966;7.854;2023-08-06T02:40:44;3.83;;;3.73;;
3527;SDS011;1778;47.966;7.854;2023-08-06T02:41:49;3.70;;;3.50;;
3527;SDS011;1778;47.966;7.854;2023-08-06T02:42:51;3.70;;;3.60;;
3527;SDS011;1778;47.966;7.854;2023-08-06T02:43:53;4.00;;;3.77;;
3527;SDS011;1778;47.966;7.854;2023-08-06T02:44:56;3.30;;;3.10;;
3527;SDS011;1778;47.966;7.854;2023-08-06T02:45:58;3.67;;;3.57;;
3527;SDS011;1778;47.966;7.854;2023-08-06T02:47:01;3.57;;;3.47;;
3527;SDS011;1778;47.966;7.854;2023-08-06T02:48:03;3.10;;;3.00;;
3527;SDS011;1778;47.966;7.854;2023-08-06T02:49:06;3.93;;;3.83;;
3527;SDS011;1778;47.966;7.854;2023-08-06T02:50:08;3.30;;;3.30;;
3527;SDS011;1778;47.966;7.854;2023-08-06T02:51:09;3.67;;;3.57;;
3527;SDS011;1778;47.966;7.854;2023-08-06T02:52:11;3.53;;;3.43;;
3527;SDS011;1778;47.966;7.854;2023-08-06T02:53:12;3.33;;;3.33;;
3527;SDS011;1778;47.966;7.854;2023-08-06T02:54:14;3.40;;;3.40;;
3527;SDS011;1778;47.966;7.854;2023-08-06T02:55:15;3.60;;;3.50;;
3527;SDS011;1778;47.966;7.854;2023-08-06T02:56:19;3.40;;;3.30;;
3527;SDS011;1778;47.966;7.854;2023-08-06T02:57:34;3.13;;;3.07;;
3527;SDS011;1778;47.966;7.854;2023-08-06T02:58:35;3.73;;;3.63;;
3527;SDS011;1778;47.966;7.854;2023-08-06T02:59:45;3.60;;;3.50;;
3527;SDS011;1778;47.966;7.854;2023-08-06T03:01:02;4.97;;;3.87;;
3527;SDS011;1778;47.966;7.854;2023-08-06T03:02:11;3.80;;;3.60;;
3527;SDS011;1778;47.966;7.854;2023-08-06T03:03:24;3.73;;;3.50;;
3527;SDS011;1778;47.966;7.854;2023-08-06T03:04:31;3.70;;;3.60;;
3527;SDS011;1778;47.966;7.854;2023-08-06T03:05:32;4.40;;;4.20;;
3527;SDS011;1778;47.966;7.854;2023-08-06T03:06:34;3.67;;;3.57;;
3527;SDS011;1778;47.966;7.854;2023-08-06T03:07:36;8.40;;;3.37;;
3527;SDS011;1778;47.966;7.854;2023-08-06T03:08:48;3.07;;;3.07;;
3527;SDS011;1778;47.966;7.854;2023-08-06T03:09:49;3.70;;;3.70;;
3527;SDS011;1778;47.966;7.854;2023-08-06T03:10:52;3.47;;;3.47;;
3527;SDS011;1778;47.966;7.854;2023-08-06T03:11:54;3.47;;;3.37;;
3527;SDS011;1778;47.966;7.854;2023-08-06T03:12:55;3.80;;;3.80;;
3527;SDS011;1778;47.966;7.854;2023-08-06T03:13:57;3.60;;;3.50;;
3527;SDS011;1778;47.966;7.854;2023-08-06T03:15:00;4.00;;;3.87;;
3527;SDS011;1778;47.966;7.854;2023-08-06T03:16:01;3.50;;;3.40;;
3527;SDS011;1778;47.966;7.854;2023-08-06T03:17:04;3.73;;;3.63;;
3527;SDS011;1778;47.966;7.854;2023-08-06T03:18:06;3.77;;;3.67;;
3527;SDS011;1778;47.966;7.854;2023-08-06T03:19:07;3.50;;;3.50;;
3527;SDS011;1778;47.966;7.854;2023-08-06T03:20:09;4.20;;;4.10;;
3527;SDS011;1778;47.966;7.854;2023-08-06T03:21:11;3.97;;;3.87;;
3527;SDS011;1778;47.966;7.854;2023-08-06T03:22:12;3.93;;;3.73;;
3527;SDS011;1778;47.966;7.854;2023-08-06T03:23:14;3.30;;;3.30;;
3527;SDS011;1778;47.966;7.854;2023-08-06T03:24:16;3.63;;;3.53;;
3527;SDS011;1778;47.966;7.854;2023-08-06T03:25:19;3.73;;;3.70;;
3527;SDS011;1778;47.966;7.854;2023-08-06T03:26:22;3.37;;;3.37;;
3527;SDS011;1778;47.966;7.854;2023-08-06T03:27:25;3.87;;;3.77;;
3527;SDS011;1778;47.966;7.854;2023-08-06T03:28:26;3.73;;;3.63;;
3527;SDS011;1778;47.966;7.854;2023-08-06T03:29:28;3.60;;;3.50;;
3527;SDS011;1778;47.966;7.854;2023-08-06T03:30:33;3.30;;;3.30;;
3527;SDS011;1778;47.966;7.854;2023-08-06T03:31:35;5.70;;;3.30;;
3527;SDS011;1778;47.966;7.854;2023-08-06T03:32:37;3.03;;;2.93;;
3527;SDS011;1778;47.966;7.854;2023-08-06T03:33:39;3.80;;;3.70;;
3527;SDS011;1778;47.966;7.854;2023-08-06T03:34:46;3.13;;;3.13;;
3527;SDS011;1778;47.966;7.854;2023-08-06T03:35:48;3.90;;;3.60;;
3527;SDS011;1778;47.966;7.854;2023-08-06T03:36:51;3.80;;;3.13;;
3527;SDS011;1778;47.966;7.854;2023-08-06T03:37:53;3.50;;;3.40;;
3527;SDS011;1778;47.966;7.854;2023-08-06T03:38:54;3.10;;;3.10;;
3527;SDS011;1778;47.966;7.854;2023-08-06T03:39:56;4.07;;;3.77;;
3527;SDS011;1778;47.966;7.854;2023-08-06T03:40:57;3.30;;;3.30;;
3527;SDS011;1778;47.966;7.854;2023-08-06T03:41:59;3.20;;;3.20;;
3527;SDS011;1778;47.966;7.854;2023-08-06T03:43:00;3.23;;;3.23;;
3527;SDS011;1778;47.966;7.854;2023-08-06T03:44:02;3.67;;;3.57;;
3527;SDS011;1778;47.966;7.854;2023-08-06T03:45:05;3.20;;;3.20;;
3527;SDS011;1778;47.966;7.854;2023-08-06T03:46:07;3.47;;;3.37;;
3527;SDS011;1778;47.966;7.854;2023-08-06T03:47:09;3.40;;;3.40;;
3527;SDS011;1778;47.966;7.854;2023-08-06T03:48:10;3.17;;;3.17;;
3527;SDS011;1778;47.966;7.854;2023-08-06T03:49:12;3.30;;;3.20;;
3527;SDS011;1778;47.966;7.854;2023-08-06T03:50:14;3.03;;;3.03;;
3527;SDS011;1778;47.966;7.854;2023-08-06T03:51:17;3.50;;;3.50;;
3527;SDS011;1778;47.966;7.854;2023-08-06T03:52:20;5.40;;;4.10;;
3527;SDS011;1778;47.966;7.854;2023-08-06T03:53:22;3.20;;;3.20;;
3527;SDS011;1778;47.966;7.854;2023-08-06T03:54:23;3.50;;;3.40;;
3527;SDS011;1778;47.966;7.854;2023-08-06T03:55:25;3.57;;;3.40;;
3527;SDS011;1778;47.966;7.854;2023-08-06T03:56:26;3.47;;;3.43;;
3527;SDS011;1778;47.966;7.854;2023-08-06T03:57:28;3.07;;;2.97;;
3527;SDS011;1778;47.966;7.854;2023-08-06T03:58:30;3.30;;;3.30;;
3527;SDS011;1778;47.966;7.854;2023-08-06T03:59:31;3.20;;;3.20;;
3527;SDS011;1778;47.966;7.854;2023-08-06T04:00:33;3.10;;;3.00;;
3527;SDS011;1778;47.966;7.854;2023-08-06T04:01:35;3.37;;;3.27;;
3527;SDS011;1778;47.966;7.854;2023-08-06T04:02:36;2.70;;;2.70;;
3527;SDS011;1778;47.966;7.854;2023-08-06T04:03:38;3.40;;;3.30;;
3527;SDS011;1778;47.966;7.854;2023-08-06T04:04:39;3.00;;;3.00;;
3527;SDS011;1778;47.966;7.854;2023-08-06T04:05:41;3.20;;;3.10;;
3527;SDS011;1778;47.966;7.854;2023-08-06T04:06:43;3.03;;;3.03;;
3527;SDS011;1778;47.966;7.854;2023-08-06T04:07:44;3.80;;;3.70;;
3527;SDS011;1778;47.966;7.854;2023-08-06T04:08:46;3.40;;;3.30;;
3527;SDS011;1778;47.966;7.854;2023-08-06T04:09:54;3.73;;;3.63;;
3527;SDS011;1778;47.966;7.854;2023-08-06T04:10:59;4.20;;;3.33;;
3527;SDS011;1778;47.966;7.854;2023-08-06T04:12:00;3.67;;;3.37;;
3527;SDS011;1778;47.966;7.854;2023-08-06T04:13:04;3.00;;;3.00;;
3527;SDS011;1778;47.966;7.854;2023-08-06T04:14:05;4.20;;;3.37;;
3527;SDS011;1778;47.966;7.854;2023-08-06T04:15:07;3.00;;;3.00;;
3527;SDS011;1778;47.966;7.854;2023-08-06T04:16:09;3.20;;;3.10;;
3527;SDS011;1778;47.966;7.854;2023-08-06T04:17:10;2.70;;;2.70;;
3527;SDS011;1778;47.966;7.854;2023-08-06T04:18:12;2.77;;;2.77;;
3527;SDS011;1778;47.966;7.854;2023-08-06T04:19:14;3.07;;;3.07;;
3527;SDS011;1778;47.966;7.854;2023-08-06T04:20:15;2.87;;;2.77;;
3527;SDS011;1778;47.966;7.854;2023-08-06T04:21:17;2.73;;;2.70;;
3527;SDS011;1778;47.966;7.854;2023-08-06T04:22:20;3.20;;;3.10;;
3527;SDS011;1778;47.966;7.854;2023-08-06T04:23:23;2.40;;;2.40;;
3527;SDS011;1778;47.966;7.854;2023-08-06T04:24:27;2.77;;;2.67;;
3527;SDS011;1778;47.966;7.854;2023-08-06T04:25:29;3.00;;;2.90;;
3527;SDS011;1778;47.966;7.854;2023-08-06T04:26:30;3.10;;;2.80;;
3527;SDS011;1778;47.966;7.854;2023-08-06T04:27:33;2.53;;;2.53;;
3527;SDS011;1778;47.966;7.854;2023-08-06T04:28:35;2.77;;;2.77;;
3527;SDS011;1778;47.966;7.854;2023-08-06T04:29:37;2.77;;;2.57;;
3527;SDS011;1778;47.966;7.854;2023-08-06T04:30:39;3.30;;;3.20;;
3527;SDS011;1778;47.966;7.854;2023-08-06T04:31:41;2.83;;;2.83;;
3527;SDS011;1778;47.966;7.854;2023-08-06T04:32:42;2.60;;;2.50;;
3527;SDS011;1778;47.966;7.854;2023-08-06T04:33:44;2.40;;;2.40;;
3527;SDS011;1778;47.966;7.854;2023-08-06T04:34:48;2.43;;;2.43;;
3527;SDS011;1778;47.966;7.854;2023-08-06T04:35:55;2.50;;;2.50;;
3527;SDS011;1778;47.966;7.854;2023-08-06T04:36:59;2.40;;;2.30;;
3527;SDS011;1778;47.966;7.854;2023-08-06T04:38:01;2.40;;;2.30;;
3527;SDS011;1778;47.966;7.854;2023-08-06T04:39:03;2.40;;;2.30;;
3527;SDS011;1778;47.966;7.854;2023-08-06T04:40:05;3.57;;;3.47;;
3527;SDS011;1778;47.966;7.854;2023-08-06T04:41:06;3.13;;;2.40;;
3527;SDS011;1778;47.966;7.854;2023-08-06T04:42:09;3.00;;;2.30;;
3527;SDS011;1778;47.966;7.854;2023-08-06T04:43:10;2.53;;;2.27;;
3527;SDS011;1778;47.966;7.854;2023-08-06T04:44:11;2.80;;;2.30;;
3527;SDS011;1778;47.966;7.854;2023-08-06T04:45:13;2.40;;;2.40;;
3527;SDS011;1778;47.966;7.854;2023-08-06T04:46:14;2.53;;;2.43;;
3527;SDS011;1778;47.966;7.854;2023-08-06T04:47:16;3.70;;;2.10;;
3527;SDS011;1778;47.966;7.854;2023-08-06T04:48:18;4.30;;;2.37;;
3527;SDS011;1778;47.966;7.854;2023-08-06T04:49:20;6.07;;;2.33;;
3527;SDS011;1778;47.966;7.854;2023-08-06T04:50:21;4.30;;;2.30;;
3527;SDS011;1778;47.966;7.854;2023-08-06T04:51:23;2.20;;;2.20;;
3527;SDS011;1778;47.966;7.854;2023-08-06T04:52:24;2.97;;;2.70;;
3527;SDS011;1778;47.966;7.854;2023-08-06T04:53:29;2.03;;;2.03;;
3527;SDS011;1778;47.966;7.854;2023-08-06T04:54:30;2.30;;;2.10;;
3527;SDS011;1778;47.966;7.854;2023-08-06T04:55:32;2.93;;;2.37;;
3527;SDS011;1778;47.966;7.854;2023-08-06T04:56:34;3.43;;;2.40;;
3527;SDS011;1778;47.966;7.854;2023-08-06T04:57:35;2.17;;;2.17;;
3527;SDS011;1778;47.966;7.854;2023-08-06T04:58:37;6.00;;;2.30;;
3527;SDS011;1778;47.966;7.854;2023-08-06T04:59:40;2.50;;;2.30;;
3527;SDS011;1778;47.966;7.854;2023-08-06T05:00:41;2.53;;;2.53;;
3527;SDS011;1778;47.966;7.854;2023-08-06T05:01:43;4.17;;;2.10;;
3527;SDS011;1778;47.966;7.854;2023-08-06T05:02:44;2.00;;;1.90;;
3527;SDS011;1778;47.966;7.854;2023-08-06T05:03:47;2.63;;;2.37;;
3527;SDS011;1778;47.966;7.854;2023-08-06T05:04:48;2.00;;;2.00;;
3527;SDS011;1778;47.966;7.854;2023-08-06T05:05:50;2.30;;;2.20;;
3527;SDS011;1778;47.966;7.854;2023-08-06T05:06:52;5.50;;;2.53;;
3527;SDS011;1778;47.966;7.854;2023-08-06T05:07:53;2.53;;;2.40;;
3527;SDS011;1778;47.966;7.854;2023-08-06T05:08:55;2.03;;;2.03;;
3527;SDS011;1778;47.966;7.854;2023-08-06T05:09:57;2.47;;;2.47;;
3527;SDS011;1778;47.966;7.854;2023-08-06T05:10:59;3.63;;;3.33;;
3527;SDS011;1778;47.966;7.854;2023-08-06T05:12:00;2.53;;;2.40;;
3527;SDS011;1778;47.966;7.854;2023-08-06T05:13:03;2.50;;;2.40;;
3527;SDS011;1778;47.966;7.854;2023-08-06T05:14:04;3.70;;;2.70;;
3527;SDS011;1778;47.966;7.854;2023-08-06T05:15:06;2.87;;;2.70;;
3527;SDS011;1778;47.966;7.854;2023-08-06T05:16:08;2.57;;;2.50;;
3527;SDS011;1778;47.966;7.854;2023-08-06T05:17:09;4.13;;;2.70;;
3527;SDS011;1778;47.966;7.854;2023-08-06T05:18:11;2.63;;;2.53;;
3527;SDS011;1778;47.966;7.854;2023-08-06T05:19:12;2.60;;;2.50;;
3527;SDS011;1778;47.966;7.854;2023-08-06T05:20:14;2.70;;;2.60;;
3527;SDS011;1778;47.966;7.854;2023-08-06T05:21:15;2.40;;;2.40;;
3527;SDS011;1778;47.966;7.854;2023-08-06T05:22:20;3.57;;;3.30;;
3527;SDS011;1778;47.966;7.854;2023-08-06T05:23:21;3.83;;;3.47;;
3527;SDS011;1778;47.966;7.854;2023-08-06T05:24:23;3.17;;;3.10;;
3527;SDS011;1778;47.966;7.854;2023-08-06T05:25:24;3.07;;;2.97;;
3527;SDS011;1778;47.966;7.854;2023-08-06T05:26:26;3.10;;;3.00;;
3527;SDS011;1778;47.966;7.854;2023-08-06T05:27:27;2.60;;;2.60;;
3527;SDS011;1778;47.966;7.854;2023-08-06T05:28:29;3.60;;;3.30;;
3527;SDS011;1778;47.966;7.854;2023-08-06T05:29:30;3.20;;;2.97;;
3527;SDS011;1778;47.966;7.854;2023-08-06T05:30:32;3.20;;;3.10;;
3527;SDS011;1778;47.966;7.854;2023-08-06T05:31:33;2.73;;;2.73;;
3527;SDS011;1778;47.966;7.854;2023-08-06T05:32:35;4.63;;;4.33;;
3527;SDS011;1778;47.966;7.854;2023-08-06T05:33:37;2.90;;;2.73;;
3527;SDS011;1778;47.966;7.854;2023-08-06T05:34:38;2.80;;;2.60;;
3527;SDS011;1778;47.966;7.854;2023-08-06T05:35:41;2.97;;;2.97;;
3527;SDS011;1778;47.966;7.854;2023-08-06T05:38:06;3.80;;;3.10;;
3527;SDS011;1778;47.966;7.854;2023-08-06T05:39:07;2.77;;;2.53;;
3527;SDS011;1778;47.966;7.854;2023-08-06T05:40:09;5.23;;;3.00;;
3527;SDS011;1778;47.966;7.854;2023-08-06T05:41:19;2.90;;;2.90;;
3527;SDS011;1778;47.966;7.854;2023-08-06T05:42:21;3.03;;;2.90;;
3527;SDS011;1778;47.966;7.854;2023-08-06T05:43:22;2.80;;;2.80;;
3527;SDS011;1778;47.966;7.854;2023-08-06T05:44:24;3.10;;;2.90;;
3527;SDS011;1778;47.966;7.854;2023-08-06T05:45:25;2.80;;;2.60;;
3527;SDS011;1778;47.966;7.854;2023-08-06T05:46:27;3.50;;;2.53;;
3527;SDS011;1778;47.966;7.854;2023-08-06T05:47:28;2.80;;;2.80;;
3527;SDS011;1778;47.966;7.854;2023-08-06T05:48:30;3.33;;;3.23;;
3527;SDS011;1778;47.966;7.854;2023-08-06T05:49:33;2.80;;;2.80;;
3527;SDS011;1778;47.966;7.854;2023-08-06T05:50:35;2.40;;;2.30;;
3527;SDS011;1778;47.966;7.854;2023-08-06T05:51:37;3.10;;;2.90;;
3527;SDS011;1778;47.966;7.854;2023-08-06T05:52:38;2.37;;;2.27;;
3527;SDS011;1778;47.966;7.854;2023-08-06T05:53:40;2.50;;;2.40;;
3527;SDS011;1778;47.966;7.854;2023-08-06T05:54:42;2.93;;;2.83;;
3527;SDS011;1778;47.966;7.854;2023-08-06T05:55:44;4.43;;;4.13;;
3527;SDS011;1778;47.966;7.854;2023-08-06T05:56:46;4.37;;;4.27;;
3527;SDS011;1778;47.966;7.854;2023-08-06T05:57:47;4.47;;;4.37;;
3527;SDS011;1778;47.966;7.854;2023-08-06T05:58:49;3.20;;;3.00;;
3527;SDS011;1778;47.966;7.854;2023-08-06T05:59:53;4.97;;;3.57;;
3527;SDS011;1778;47.966;7.854;2023-08-06T06:00:55;3.00;;;2.80;;
3527;SDS011;1778;47.966;7.854;2023-08-06T06:01:57;2.70;;;2.70;;
3527;SDS011;1778;47.966;7.854;2023-08-06T06:02:59;3.20;;;3.00;;
3527;SDS011;1778;47.966;7.854;2023-08-06T06:04:00;3.90;;;3.60;;
3527;SDS011;1778;47.966;7.854;2023-08-06T06:05:02;2.77;;;2.73;;
3527;SDS011;1778;47.966;7.854;2023-08-06T06:06:03;2.50;;;2.50;;
3527;SDS011;1778;47.966;7.854;2023-08-06T06:07:05;2.53;;;2.53;;
3527;SDS011;1778;47.966;7.854;2023-08-06T06:08:06;2.83;;;2.73;;
3527;SDS011;1778;47.966;7.854;2023-08-06T06:09:08;2.57;;;2.47;;
3527;SDS011;1778;47.966;7.854;2023-08-06T06:10:09;2.93;;;2.47;;
3527;SDS011;1778;47.966;7.854;2023-08-06T06:11:11;2.50;;;2.40;;
3527;SDS011;1778;47.966;7.854;2023-08-06T06:12:13;2.40;;;2.20;;
3527;SDS011;1778;47.966;7.854;2023-08-06T06:13:15;2.37;;;2.33;;
3527;SDS011;1778;47.966;7.854;2023-08-06T06:14:17;2.13;;;2.03;;
3527;SDS011;1778;47.966;7.854;2023-08-06T06:15:19;2.63;;;2.43;;
3527;SDS011;1778;47.966;7.854;2023-08-06T06:16:21;2.60;;;2.40;;
3527;SDS011;1778;47.966;7.854;2023-08-06T06:17:23;2.43;;;2.20;;
3527;SDS011;1778;47.966;7.854;2023-08-06T06:18:25;2.33;;;2.33;;
3527;SDS011;1778;47.966;7.854;2023-08-06T06:19:26;2.27;;;2.17;;
3527;SDS011;1778;47.966;7.854;2023-08-06T06:20:31;2.00;;;2.00;;
3527;SDS011;1778;47.966;7.854;2023-08-06T06:21:34;2.10;;;2.10;;
3527;SDS011;1778;47.966;7.854;2023-08-06T06:22:35;2.00;;;2.00;;
3527;SDS011;1778;47.966;7.854;2023-08-06T06:23:37;2.27;;;2.17;;
3527;SDS011;1778;47.966;7.854;2023-08-06T06:24:38;1.77;;;1.77;;
3527;SDS011;1778;47.966;7.854;2023-08-06T06:25:44;2.00;;;2.00;;
3527;SDS011;1778;47.966;7.854;2023-08-06T06:26:49;9.63;;;2.30;;
3527;SDS011;1778;47.966;7.854;2023-08-06T06:27:50;2.03;;;2.03;;
3527;SDS011;1778;47.966;7.854;2023-08-06T06:28:52;2.20;;;2.20;;
3527;SDS011;1778;47.966;7.854;2023-08-06T06:29:54;2.20;;;2.20;;
3527;SDS011;1778;47.966;7.854;2023-08-06T06:30:59;1.90;;;1.90;;
3527;SDS011;1778;47.966;7.854;2023-08-06T06:32:02;2.33;;;2.10;;
3527;SDS011;1778;47.966;7.854;2023-08-06T06:33:03;4.60;;;2.30;;